sensor_id;sensor_type;location;lat;lon;timestamp;P1;durP1;ratioP1;P2;durP2;ratioP2
15665;SDS011;20725;51.196;3.510;2022-12-07T00:00:38;7.03;;;5.23;;
15665;SDS011;20725;51.196;3.510;2022-12-07T00:03:14;8.37;;;6.30;;
15665;SDS011;20725;51.196;3.510;2022-12-07T00:06:03;7.20;;;5.63;;
15665;SDS011;20725;51.196;3.510;2022-12-07T00:08:51;6.30;;;5.10;;
15665;SDS011;20725;51.196;3.510;2022-12-07T00:11:43;6.70;;;4.90;;
15665;SDS011;20725;51.196;3.510;2022-12-07T00:14:32;7.23;;;4.80;;
15665;SDS011;20725;51.196;3.510;2022-12-07T00:17:34;6.13;;;4.80;;
15665;SDS011;20725;51.196;3.510;2022-12-07T00:20:25;7.73;;;5.10;;
15665;SDS011;20725;51.196;3.510;2022-12-07T00:23:02;10.37;;;5.13;;
15665;SDS011;20725;51.196;3.510;2022-12-07T00:25:53;8.80;;;5.40;;
15665;SDS011;20725;51.196;3.510;2022-12-07T00:31:20;10.57;;;5.53;;
15665;SDS011;20725;51.196;3.510;2022-12-07T00:34:13;9.90;;;4.93;;
15665;SDS011;20725;51.196;3.510;2022-12-07T00:36:59;6.13;;;5.10;;
15665;SDS011;20725;51.196;3.510;2022-12-07T00:39:48;13.90;;;5.70;;
15665;SDS011;20725;51.196;3.510;2022-12-07T00:42:25;11.50;;;5.50;;
15665;SDS011;20725;51.196;3.510;2022-12-07T00:45:34;9.70;;;5.90;;
15665;SDS011;20725;51.196;3.510;2022-12-07T00:48:18;7.17;;;5.50;;
15665;SDS011;20725;51.196;3.510;2022-12-07T00:51:00;12.77;;;5.97;;
15665;SDS011;20725;51.196;3.510;2022-12-07T00:53:47;11.13;;;5.80;;
15665;SDS011;20725;51.196;3.510;2022-12-07T00:56:43;9.83;;;6.83;;
15665;SDS011;20725;51.196;3.510;2022-12-07T00:59:24;10.27;;;7.00;;
15665;SDS011;20725;51.196;3.510;2022-12-07T01:07:22;12.90;;;6.00;;
15665;SDS011;20725;51.196;3.510;2022-12-07T01:10:19;13.90;;;6.27;;
15665;SDS011;20725;51.196;3.510;2022-12-07T01:13:22;12.83;;;5.50;;
15665;SDS011;20725;51.196;3.510;2022-12-07T01:16:43;8.07;;;4.67;;
15665;SDS011;20725;51.196;3.510;2022-12-07T01:19:24;12.40;;;4.77;;
15665;SDS011;20725;51.196;3.510;2022-12-07T01:25:21;8.63;;;3.83;;
15665;SDS011;20725;51.196;3.510;2022-12-07T01:28:04;12.07;;;4.03;;
15665;SDS011;20725;51.196;3.510;2022-12-07T01:31:05;10.43;;;4.03;;
15665;SDS011;20725;51.196;3.510;2022-12-07T01:34:11;10.17;;;4.20;;
15665;SDS011;20725;51.196;3.510;2022-12-07T01:37:16;6.13;;;3.73;;
15665;SDS011;20725;51.196;3.510;2022-12-07T01:49:37;5.23;;;2.67;;
15665;SDS011;20725;51.196;3.510;2022-12-07T01:55:50;5.73;;;2.73;;
15665;SDS011;20725;51.196;3.510;2022-12-07T02:00:56;3.00;;;2.70;;
15665;SDS011;20725;51.196;3.510;2022-12-07T02:22:23;4.33;;;2.00;;
15665;SDS011;20725;51.196;3.510;2022-12-07T02:36:04;8.70;;;2.00;;
15665;SDS011;20725;51.196;3.510;2022-12-07T02:39:14;5.57;;;2.10;;
15665;SDS011;20725;51.196;3.510;2022-12-07T02:42:05;10.53;;;1.90;;
15665;SDS011;20725;51.196;3.510;2022-12-07T02:44:59;5.23;;;1.87;;
15665;SDS011;20725;51.196;3.510;2022-12-07T02:47:56;5.00;;;1.80;;
15665;SDS011;20725;51.196;3.510;2022-12-07T02:51:04;5.53;;;1.90;;
15665;SDS011;20725;51.196;3.510;2022-12-07T02:54:38;2.43;;;1.80;;
15665;SDS011;20725;51.196;3.510;2022-12-07T02:57:36;8.00;;;2.27;;
15665;SDS011;20725;51.196;3.510;2022-12-07T03:03:38;6.23;;;1.67;;
15665;SDS011;20725;51.196;3.510;2022-12-07T03:06:35;4.83;;;2.23;;
15665;SDS011;20725;51.196;3.510;2022-12-07T03:09:52;6.33;;;2.20;;
15665;SDS011;20725;51.196;3.510;2022-12-07T03:12:59;4.93;;;2.37;;
15665;SDS011;20725;51.196;3.510;2022-12-07T03:16:03;6.63;;;2.10;;
15665;SDS011;20725;51.196;3.510;2022-12-07T03:19:05;5.43;;;2.30;;
15665;SDS011;20725;51.196;3.510;2022-12-07T03:29:25;5.20;;;2.50;;
15665;SDS011;20725;51.196;3.510;2022-12-07T03:35:00;5.73;;;2.40;;
15665;SDS011;20725;51.196;3.510;2022-12-07T03:37:57;4.07;;;2.20;;
15665;SDS011;20725;51.196;3.510;2022-12-07T03:44:25;5.27;;;2.83;;
15665;SDS011;20725;51.196;3.510;2022-12-07T03:47:15;7.17;;;3.20;;
15665;SDS011;20725;51.196;3.510;2022-12-07T03:51:28;4.13;;;2.40;;
15665;SDS011;20725;51.196;3.510;2022-12-07T03:53:48;5.00;;;2.43;;
15665;SDS011;20725;51.196;3.510;2022-12-07T03:56:52;4.60;;;2.43;;
15665;SDS011;20725;51.196;3.510;2022-12-07T04:02:56;5.00;;;2.70;;
15665;SDS011;20725;51.196;3.510;2022-12-07T04:08:20;4.20;;;2.67;;
15665;SDS011;20725;51.196;3.510;2022-12-07T04:11:11;6.47;;;3.00;;
15665;SDS011;20725;51.196;3.510;2022-12-07T04:14:16;8.57;;;3.10;;
15665;SDS011;20725;51.196;3.510;2022-12-07T04:17:14;7.67;;;2.87;;
15665;SDS011;20725;51.196;3.510;2022-12-07T04:20:19;5.70;;;3.20;;
15665;SDS011;20725;51.196;3.510;2022-12-07T04:23:24;3.20;;;2.43;;
15665;SDS011;20725;51.196;3.510;2022-12-07T04:26:03;4.80;;;2.73;;
15665;SDS011;20725;51.196;3.510;2022-12-07T04:29:12;3.23;;;2.97;;
15665;SDS011;20725;51.196;3.510;2022-12-07T04:31:58;4.53;;;2.53;;
15665;SDS011;20725;51.196;3.510;2022-12-07T04:35:07;9.33;;;3.13;;
15665;SDS011;20725;51.196;3.510;2022-12-07T04:38:41;8.80;;;2.90;;
15665;SDS011;20725;51.196;3.510;2022-12-07T04:41:43;6.53;;;2.90;;
15665;SDS011;20725;51.196;3.510;2022-12-07T04:44:45;4.40;;;2.83;;
15665;SDS011;20725;51.196;3.510;2022-12-07T04:47:35;5.47;;;2.67;;
15665;SDS011;20725;51.196;3.510;2022-12-07T04:50:31;4.63;;;2.90;;
15665;SDS011;20725;51.196;3.510;2022-12-07T04:53:31;5.67;;;3.40;;
15665;SDS011;20725;51.196;3.510;2022-12-07T04:56:35;5.10;;;3.00;;
15665;SDS011;20725;51.196;3.510;2022-12-07T04:59:22;6.73;;;3.07;;
15665;SDS011;20725;51.196;3.510;2022-12-07T05:05:25;6.77;;;3.13;;
15665;SDS011;20725;51.196;3.510;2022-12-07T05:08:28;5.77;;;3.17;;
15665;SDS011;20725;51.196;3.510;2022-12-07T05:11:36;11.17;;;4.30;;
15665;SDS011;20725;51.196;3.510;2022-12-07T05:14:52;6.63;;;3.37;;
15665;SDS011;20725;51.196;3.510;2022-12-07T05:20:56;7.10;;;3.20;;
15665;SDS011;20725;51.196;3.510;2022-12-07T05:25:43;5.07;;;2.70;;
15665;SDS011;20725;51.196;3.510;2022-12-07T05:26:56;4.50;;;3.00;;
15665;SDS011;20725;51.196;3.510;2022-12-07T05:42:36;7.77;;;3.60;;
15665;SDS011;20725;51.196;3.510;2022-12-07T05:45:40;6.30;;;3.00;;
15665;SDS011;20725;51.196;3.510;2022-12-07T05:48:50;12.27;;;4.13;;
15665;SDS011;20725;51.196;3.510;2022-12-07T05:55:03;6.47;;;3.37;;
15665;SDS011;20725;51.196;3.510;2022-12-07T06:01:04;12.77;;;3.30;;
15665;SDS011;20725;51.196;3.510;2022-12-07T06:04:17;11.83;;;3.97;;
15665;SDS011;20725;51.196;3.510;2022-12-07T06:10:29;8.63;;;5.13;;
15665;SDS011;20725;51.196;3.510;2022-12-07T06:13:24;7.97;;;4.97;;
15665;SDS011;20725;51.196;3.510;2022-12-07T06:16:27;10.13;;;4.63;;
15665;SDS011;20725;51.196;3.510;2022-12-07T06:19:30;11.00;;;4.30;;
15665;SDS011;20725;51.196;3.510;2022-12-07T06:22:23;12.87;;;4.30;;
15665;SDS011;20725;51.196;3.510;2022-12-07T06:28:32;8.10;;;3.43;;
15665;SDS011;20725;51.196;3.510;2022-12-07T06:31:38;6.07;;;3.20;;
15665;SDS011;20725;51.196;3.510;2022-12-07T06:49:56;5.00;;;3.90;;
15665;SDS011;20725;51.196;3.510;2022-12-07T06:51:08;10.67;;;3.60;;
15665;SDS011;20725;51.196;3.510;2022-12-07T06:53:53;13.47;;;3.13;;
15665;SDS011;20725;51.196;3.510;2022-12-07T06:57:09;5.13;;;2.37;;
15665;SDS011;20725;51.196;3.510;2022-12-07T07:00:10;5.10;;;2.50;;
15665;SDS011;20725;51.196;3.510;2022-12-07T08:39:23;13.93;;;7.13;;
15665;SDS011;20725;51.196;3.510;2022-12-07T08:42:09;15.67;;;5.33;;
15665;SDS011;20725;51.196;3.510;2022-12-07T08:44:52;13.57;;;5.60;;
15665;SDS011;20725;51.196;3.510;2022-12-07T08:47:33;11.63;;;5.70;;
15665;SDS011;20725;51.196;3.510;2022-12-07T08:50:09;7.63;;;5.30;;
15665;SDS011;20725;51.196;3.510;2022-12-07T08:58:55;8.03;;;4.20;;
15665;SDS011;20725;51.196;3.510;2022-12-07T09:01:28;7.47;;;4.93;;
15665;SDS011;20725;51.196;3.510;2022-12-07T09:04:09;10.73;;;4.63;;
15665;SDS011;20725;51.196;3.510;2022-12-07T09:06:56;10.10;;;5.00;;
15665;SDS011;20725;51.196;3.510;2022-12-07T09:09:35;5.77;;;3.60;;
15665;SDS011;20725;51.196;3.510;2022-12-07T09:18:31;12.10;;;4.93;;
15665;SDS011;20725;51.196;3.510;2022-12-07T09:21:12;12.43;;;5.20;;
15665;SDS011;20725;51.196;3.510;2022-12-07T09:23:58;11.57;;;5.23;;
15665;SDS011;20725;51.196;3.510;2022-12-07T09:26:54;11.50;;;5.43;;
15665;SDS011;20725;51.196;3.510;2022-12-07T09:29:45;11.67;;;5.57;;
15665;SDS011;20725;51.196;3.510;2022-12-07T09:35:48;7.60;;;5.83;;
15665;SDS011;20725;51.196;3.510;2022-12-07T09:38:32;9.90;;;5.27;;
15665;SDS011;20725;51.196;3.510;2022-12-07T09:41:27;8.67;;;4.80;;
15665;SDS011;20725;51.196;3.510;2022-12-07T09:44:13;11.53;;;5.20;;
15665;SDS011;20725;51.196;3.510;2022-12-07T09:47:03;11.37;;;4.90;;
15665;SDS011;20725;51.196;3.510;2022-12-07T09:49:48;11.07;;;5.30;;
15665;SDS011;20725;51.196;3.510;2022-12-07T09:59:21;7.20;;;4.80;;
15665;SDS011;20725;51.196;3.510;2022-12-07T10:02:22;7.80;;;4.23;;
15665;SDS011;20725;51.196;3.510;2022-12-07T10:05:19;9.00;;;4.83;;
15665;SDS011;20725;51.196;3.510;2022-12-07T10:34:45;8.47;;;4.90;;
15665;SDS011;20725;51.196;3.510;2022-12-07T10:44:21;11.37;;;5.07;;
15665;SDS011;20725;51.196;3.510;2022-12-07T10:47:31;7.60;;;4.00;;
15665;SDS011;20725;51.196;3.510;2022-12-07T11:23:52;7.40;;;1.97;;
15665;SDS011;20725;51.196;3.510;2022-12-07T11:27:27;4.07;;;1.60;;
15665;SDS011;20725;51.196;3.510;2022-12-07T11:30:17;4.40;;;0.87;;
15665;SDS011;20725;51.196;3.510;2022-12-07T11:33:19;2.60;;;1.00;;
15665;SDS011;20725;51.196;3.510;2022-12-07T11:39:29;2.27;;;0.60;;
15665;SDS011;20725;51.196;3.510;2022-12-07T11:42:09;1.33;;;0.60;;
15665;SDS011;20725;51.196;3.510;2022-12-07T11:45:26;1.80;;;0.90;;
15665;SDS011;20725;51.196;3.510;2022-12-07T11:48:21;3.23;;;0.90;;
15665;SDS011;20725;51.196;3.510;2022-12-07T11:51:20;2.23;;;0.93;;
15665;SDS011;20725;51.196;3.510;2022-12-07T11:54:23;2.63;;;0.83;;
15665;SDS011;20725;51.196;3.510;2022-12-07T11:57:17;3.03;;;1.10;;
15665;SDS011;20725;51.196;3.510;2022-12-07T12:00:12;2.30;;;1.10;;
15665;SDS011;20725;51.196;3.510;2022-12-07T12:03:22;1.67;;;1.00;;
15665;SDS011;20725;51.196;3.510;2022-12-07T12:06:19;3.67;;;1.57;;
15665;SDS011;20725;51.196;3.510;2022-12-07T12:13:02;2.13;;;1.40;;
15665;SDS011;20725;51.196;3.510;2022-12-07T12:16:04;2.80;;;1.40;;
15665;SDS011;20725;51.196;3.510;2022-12-07T12:19:13;2.47;;;1.50;;
15665;SDS011;20725;51.196;3.510;2022-12-07T12:22:10;4.37;;;2.20;;
15665;SDS011;20725;51.196;3.510;2022-12-07T12:24:56;4.73;;;3.20;;
15665;SDS011;20725;51.196;3.510;2022-12-07T12:27:45;4.50;;;1.50;;
15665;SDS011;20725;51.196;3.510;2022-12-07T12:30:40;2.07;;;1.20;;
15665;SDS011;20725;51.196;3.510;2022-12-07T12:33:20;2.93;;;1.43;;
15665;SDS011;20725;51.196;3.510;2022-12-07T12:36:18;3.50;;;1.20;;
15665;SDS011;20725;51.196;3.510;2022-12-07T12:39:09;3.23;;;1.20;;
15665;SDS011;20725;51.196;3.510;2022-12-07T12:51:02;1.40;;;1.17;;
15665;SDS011;20725;51.196;3.510;2022-12-07T12:54:20;1.63;;;1.20;;
15665;SDS011;20725;51.196;3.510;2022-12-07T12:57:06;0.97;;;0.93;;
15665;SDS011;20725;51.196;3.510;2022-12-07T12:59:57;3.43;;;1.20;;
15665;SDS011;20725;51.196;3.510;2022-12-07T13:02:33;2.13;;;0.90;;
15665;SDS011;20725;51.196;3.510;2022-12-07T13:05:22;1.77;;;1.10;;
15665;SDS011;20725;51.196;3.510;2022-12-07T13:08:28;1.57;;;1.30;;
15665;SDS011;20725;51.196;3.510;2022-12-07T13:11:15;1.47;;;1.37;;
15665;SDS011;20725;51.196;3.510;2022-12-07T13:17:15;1.53;;;1.20;;
15665;SDS011;20725;51.196;3.510;2022-12-07T13:20:49;6.93;;;2.00;;
15665;SDS011;20725;51.196;3.510;2022-12-07T13:23:38;5.23;;;1.87;;
15665;SDS011;20725;51.196;3.510;2022-12-07T13:26:38;2.80;;;1.63;;
15665;SDS011;20725;51.196;3.510;2022-12-07T13:29:25;3.27;;;1.67;;
15665;SDS011;20725;51.196;3.510;2022-12-07T13:32:17;2.37;;;1.53;;
15665;SDS011;20725;51.196;3.510;2022-12-07T13:35:37;3.30;;;1.60;;
15665;SDS011;20725;51.196;3.510;2022-12-07T13:38:25;3.03;;;1.40;;
15665;SDS011;20725;51.196;3.510;2022-12-07T13:53:45;2.40;;;1.60;;
15665;SDS011;20725;51.196;3.510;2022-12-07T13:59:29;4.00;;;1.37;;
15665;SDS011;20725;51.196;3.510;2022-12-07T14:02:17;2.00;;;1.10;;
15665;SDS011;20725;51.196;3.510;2022-12-07T14:04:52;1.97;;;1.07;;
15665;SDS011;20725;51.196;3.510;2022-12-07T14:11:20;1.47;;;1.03;;
15665;SDS011;20725;51.196;3.510;2022-12-07T14:13:52;2.07;;;1.10;;
15665;SDS011;20725;51.196;3.510;2022-12-07T14:16:43;3.17;;;1.20;;
15665;SDS011;20725;51.196;3.510;2022-12-07T14:19:40;4.57;;;1.40;;
15665;SDS011;20725;51.196;3.510;2022-12-07T14:22:29;6.33;;;1.67;;
15665;SDS011;20725;51.196;3.510;2022-12-07T14:28:46;5.97;;;1.70;;
15665;SDS011;20725;51.196;3.510;2022-12-07T14:31:18;2.50;;;2.00;;
15665;SDS011;20725;51.196;3.510;2022-12-07T14:33:54;2.57;;;1.70;;
15665;SDS011;20725;51.196;3.510;2022-12-07T14:36:39;1.97;;;1.30;;
15665;SDS011;20725;51.196;3.510;2022-12-07T14:39:23;1.70;;;1.60;;
15665;SDS011;20725;51.196;3.510;2022-12-07T14:42:12;2.93;;;2.00;;
15665;SDS011;20725;51.196;3.510;2022-12-07T14:44:53;2.50;;;2.03;;
15665;SDS011;20725;51.196;3.510;2022-12-07T14:47:48;2.80;;;1.87;;
15665;SDS011;20725;51.196;3.510;2022-12-07T14:50:29;5.67;;;2.10;;
15665;SDS011;20725;51.196;3.510;2022-12-07T14:53:17;3.27;;;1.93;;
15665;SDS011;20725;51.196;3.510;2022-12-07T14:55:59;1.83;;;1.70;;
15665;SDS011;20725;51.196;3.510;2022-12-07T14:58:43;2.00;;;1.83;;
15665;SDS011;20725;51.196;3.510;2022-12-07T15:01:32;3.17;;;1.70;;
15665;SDS011;20725;51.196;3.510;2022-12-07T15:04:25;2.50;;;2.03;;
15665;SDS011;20725;51.196;3.510;2022-12-07T15:10:29;2.03;;;1.93;;
15665;SDS011;20725;51.196;3.510;2022-12-07T15:13:12;2.33;;;1.97;;
15665;SDS011;20725;51.196;3.510;2022-12-07T15:16:01;2.70;;;2.00;;
15665;SDS011;20725;51.196;3.510;2022-12-07T15:18:38;3.63;;;2.10;;
15665;SDS011;20725;51.196;3.510;2022-12-07T15:21:13;3.07;;;2.30;;
15665;SDS011;20725;51.196;3.510;2022-12-07T15:24:07;5.43;;;2.97;;
15665;SDS011;20725;51.196;3.510;2022-12-07T15:26:49;6.07;;;5.33;;
15665;SDS011;20725;51.196;3.510;2022-12-07T15:29:36;8.60;;;5.13;;
15665;SDS011;20725;51.196;3.510;2022-12-07T15:32:12;7.50;;;5.80;;
15665;SDS011;20725;51.196;3.510;2022-12-07T15:41:12;5.20;;;4.63;;
15665;SDS011;20725;51.196;3.510;2022-12-07T15:43:59;5.90;;;3.63;;
15665;SDS011;20725;51.196;3.510;2022-12-07T15:46:49;6.70;;;3.30;;
15665;SDS011;20725;51.196;3.510;2022-12-07T15:49:21;8.27;;;3.90;;
15665;SDS011;20725;51.196;3.510;2022-12-07T15:52:02;5.63;;;4.20;;
15665;SDS011;20725;51.196;3.510;2022-12-07T15:54:47;4.70;;;3.70;;
15665;SDS011;20725;51.196;3.510;2022-12-07T15:57:39;8.20;;;4.23;;
15665;SDS011;20725;51.196;3.510;2022-12-07T16:00:27;7.10;;;5.10;;
15665;SDS011;20725;51.196;3.510;2022-12-07T16:03:11;12.43;;;6.63;;
15665;SDS011;20725;51.196;3.510;2022-12-07T16:05:42;7.20;;;6.50;;
15665;SDS011;20725;51.196;3.510;2022-12-07T16:08:26;6.63;;;5.83;;
15665;SDS011;20725;51.196;3.510;2022-12-07T16:13:50;10.17;;;5.60;;
15665;SDS011;20725;51.196;3.510;2022-12-07T16:16:25;6.10;;;4.70;;
15665;SDS011;20725;51.196;3.510;2022-12-07T16:19:06;6.90;;;5.30;;
15665;SDS011;20725;51.196;3.510;2022-12-07T16:21:41;7.17;;;4.63;;
15665;SDS011;20725;51.196;3.510;2022-12-07T16:24:18;8.13;;;4.90;;
15665;SDS011;20725;51.196;3.510;2022-12-07T16:27:05;9.23;;;5.70;;
15665;SDS011;20725;51.196;3.510;2022-12-07T16:29:43;7.07;;;4.93;;
15665;SDS011;20725;51.196;3.510;2022-12-07T16:32:42;7.30;;;4.33;;
15665;SDS011;20725;51.196;3.510;2022-12-07T16:35:40;6.40;;;4.90;;
15665;SDS011;20725;51.196;3.510;2022-12-07T16:38:12;5.83;;;4.83;;
15665;SDS011;20725;51.196;3.510;2022-12-07T16:40:53;5.30;;;4.23;;
15665;SDS011;20725;51.196;3.510;2022-12-07T16:46:24;4.90;;;4.50;;
15665;SDS011;20725;51.196;3.510;2022-12-07T16:49:00;4.73;;;4.20;;
15665;SDS011;20725;51.196;3.510;2022-12-07T16:51:50;10.13;;;4.80;;
15665;SDS011;20725;51.196;3.510;2022-12-07T16:54:24;7.73;;;4.20;;
15665;SDS011;20725;51.196;3.510;2022-12-07T16:56:59;9.27;;;5.70;;
15665;SDS011;20725;51.196;3.510;2022-12-07T16:59:31;8.70;;;6.60;;
15665;SDS011;20725;51.196;3.510;2022-12-07T17:02:15;7.40;;;5.93;;
15665;SDS011;20725;51.196;3.510;2022-12-07T17:04:55;10.23;;;5.93;;
15665;SDS011;20725;51.196;3.510;2022-12-07T17:07:27;8.00;;;5.23;;
15665;SDS011;20725;51.196;3.510;2022-12-07T17:10:00;7.60;;;5.67;;
15665;SDS011;20725;51.196;3.510;2022-12-07T17:12:31;9.77;;;5.73;;
15665;SDS011;20725;51.196;3.510;2022-12-07T17:15:05;7.43;;;5.00;;
15665;SDS011;20725;51.196;3.510;2022-12-07T17:17:43;8.37;;;5.17;;
15665;SDS011;20725;51.196;3.510;2022-12-07T17:20:11;15.33;;;6.17;;
15665;SDS011;20725;51.196;3.510;2022-12-07T17:22:41;7.77;;;5.87;;
15665;SDS011;20725;51.196;3.510;2022-12-07T17:25:13;6.93;;;5.53;;
15665;SDS011;20725;51.196;3.510;2022-12-07T17:27:46;10.57;;;6.50;;
15665;SDS011;20725;51.196;3.510;2022-12-07T17:30:16;13.80;;;7.03;;
15665;SDS011;20725;51.196;3.510;2022-12-07T17:32:44;11.03;;;6.57;;
15665;SDS011;20725;51.196;3.510;2022-12-07T17:35:27;12.13;;;6.87;;
15665;SDS011;20725;51.196;3.510;2022-12-07T17:37:55;11.23;;;6.83;;
15665;SDS011;20725;51.196;3.510;2022-12-07T17:40:23;11.57;;;7.10;;
15665;SDS011;20725;51.196;3.510;2022-12-07T17:42:52;12.53;;;7.87;;
15665;SDS011;20725;51.196;3.510;2022-12-07T17:45:27;14.57;;;8.00;;
15665;SDS011;20725;51.196;3.510;2022-12-07T17:47:59;11.47;;;8.50;;
15665;SDS011;20725;51.196;3.510;2022-12-07T17:50:38;15.50;;;8.90;;
15665;SDS011;20725;51.196;3.510;2022-12-07T17:53:22;16.60;;;8.53;;
15665;SDS011;20725;51.196;3.510;2022-12-07T17:55:52;12.50;;;7.93;;
15665;SDS011;20725;51.196;3.510;2022-12-07T17:58:24;10.97;;;8.77;;
15665;SDS011;20725;51.196;3.510;2022-12-07T18:00:56;9.43;;;7.97;;
15665;SDS011;20725;51.196;3.510;2022-12-07T18:03:26;12.70;;;9.07;;
15665;SDS011;20725;51.196;3.510;2022-12-07T18:05:55;18.20;;;8.70;;
15665;SDS011;20725;51.196;3.510;2022-12-07T18:08:37;16.57;;;9.73;;
15665;SDS011;20725;51.196;3.510;2022-12-07T18:11:07;17.70;;;10.40;;
15665;SDS011;20725;51.196;3.510;2022-12-07T18:13:42;13.67;;;9.30;;
15665;SDS011;20725;51.196;3.510;2022-12-07T18:16:16;16.70;;;8.70;;
15665;SDS011;20725;51.196;3.510;2022-12-07T18:18:45;11.30;;;7.70;;
15665;SDS011;20725;51.196;3.510;2022-12-07T18:21:23;13.57;;;8.57;;
15665;SDS011;20725;51.196;3.510;2022-12-07T18:23:54;11.43;;;8.10;;
15665;SDS011;20725;51.196;3.510;2022-12-07T18:26:27;13.20;;;7.37;;
15665;SDS011;20725;51.196;3.510;2022-12-07T18:29:05;9.73;;;8.83;;
15665;SDS011;20725;51.196;3.510;2022-12-07T18:31:38;9.23;;;8.03;;
15665;SDS011;20725;51.196;3.510;2022-12-07T18:34:11;11.13;;;7.63;;
15665;SDS011;20725;51.196;3.510;2022-12-07T18:36:46;11.73;;;7.93;;
15665;SDS011;20725;51.196;3.510;2022-12-07T18:39:17;8.80;;;7.90;;
15665;SDS011;20725;51.196;3.510;2022-12-07T18:41:53;12.90;;;8.53;;
15665;SDS011;20725;51.196;3.510;2022-12-07T18:44:25;12.23;;;8.83;;
15665;SDS011;20725;51.196;3.510;2022-12-07T18:47:10;14.23;;;9.20;;
15665;SDS011;20725;51.196;3.510;2022-12-07T18:49:39;12.13;;;8.90;;
15665;SDS011;20725;51.196;3.510;2022-12-07T18:52:07;15.77;;;8.73;;
15665;SDS011;20725;51.196;3.510;2022-12-07T18:54:36;12.03;;;8.10;;
15665;SDS011;20725;51.196;3.510;2022-12-07T18:57:22;9.57;;;7.50;;
15665;SDS011;20725;51.196;3.510;2022-12-07T18:59:58;9.33;;;7.03;;
15665;SDS011;20725;51.196;3.510;2022-12-07T19:02:48;9.80;;;6.93;;
15665;SDS011;20725;51.196;3.510;2022-12-07T19:05:58;7.03;;;4.67;;
15665;SDS011;20725;51.196;3.510;2022-12-07T19:08:49;6.87;;;4.87;;
15665;SDS011;20725;51.196;3.510;2022-12-07T19:11:55;6.47;;;4.43;;
15665;SDS011;20725;51.196;3.510;2022-12-07T19:14:49;11.13;;;5.70;;
15665;SDS011;20725;51.196;3.510;2022-12-07T19:17:39;6.33;;;5.70;;
15665;SDS011;20725;51.196;3.510;2022-12-07T19:20:24;7.93;;;5.80;;
15665;SDS011;20725;51.196;3.510;2022-12-07T19:23:07;8.80;;;5.10;;
15665;SDS011;20725;51.196;3.510;2022-12-07T19:25:35;9.57;;;5.57;;
15665;SDS011;20725;51.196;3.510;2022-12-07T19:28:09;8.00;;;4.97;;
15665;SDS011;20725;51.196;3.510;2022-12-07T19:30:49;5.10;;;4.60;;
15665;SDS011;20725;51.196;3.510;2022-12-07T19:33:18;6.30;;;4.37;;
15665;SDS011;20725;51.196;3.510;2022-12-07T19:35:54;8.30;;;4.37;;
15665;SDS011;20725;51.196;3.510;2022-12-07T19:38:39;6.40;;;4.47;;
15665;SDS011;20725;51.196;3.510;2022-12-07T19:41:24;10.93;;;4.40;;
15665;SDS011;20725;51.196;3.510;2022-12-07T19:44:11;5.87;;;4.40;;
15665;SDS011;20725;51.196;3.510;2022-12-07T19:46:40;7.17;;;4.67;;
15665;SDS011;20725;51.196;3.510;2022-12-07T19:49:23;6.33;;;4.90;;
15665;SDS011;20725;51.196;3.510;2022-12-07T19:52:11;6.70;;;5.80;;
15665;SDS011;20725;51.196;3.510;2022-12-07T19:54:47;6.53;;;5.40;;
15665;SDS011;20725;51.196;3.510;2022-12-07T19:57:28;5.87;;;5.30;;
15665;SDS011;20725;51.196;3.510;2022-12-07T20:00:15;9.97;;;5.50;;
15665;SDS011;20725;51.196;3.510;2022-12-07T20:02:49;7.13;;;5.37;;
15665;SDS011;20725;51.196;3.510;2022-12-07T20:05:21;6.67;;;5.90;;
15665;SDS011;20725;51.196;3.510;2022-12-07T20:08:01;7.40;;;5.50;;
15665;SDS011;20725;51.196;3.510;2022-12-07T20:10:42;7.93;;;6.17;;
15665;SDS011;20725;51.196;3.510;2022-12-07T20:13:23;6.50;;;6.00;;
15665;SDS011;20725;51.196;3.510;2022-12-07T20:16:02;13.23;;;6.03;;
15665;SDS011;20725;51.196;3.510;2022-12-07T20:18:46;11.80;;;7.60;;
15665;SDS011;20725;51.196;3.510;2022-12-07T20:24:22;8.37;;;7.47;;
15665;SDS011;20725;51.196;3.510;2022-12-07T20:27:03;9.50;;;7.90;;
15665;SDS011;20725;51.196;3.510;2022-12-07T20:29:47;9.27;;;7.07;;
15665;SDS011;20725;51.196;3.510;2022-12-07T20:32:21;10.43;;;7.17;;
15665;SDS011;20725;51.196;3.510;2022-12-07T20:34:55;13.03;;;6.33;;
15665;SDS011;20725;51.196;3.510;2022-12-07T20:37:39;9.67;;;7.13;;
15665;SDS011;20725;51.196;3.510;2022-12-07T20:40:18;10.60;;;6.90;;
15665;SDS011;20725;51.196;3.510;2022-12-07T20:42:54;11.63;;;6.93;;
15665;SDS011;20725;51.196;3.510;2022-12-07T20:45:35;11.37;;;6.87;;
15665;SDS011;20725;51.196;3.510;2022-12-07T20:48:23;10.87;;;7.10;;
15665;SDS011;20725;51.196;3.510;2022-12-07T20:50:51;12.67;;;7.70;;
15665;SDS011;20725;51.196;3.510;2022-12-07T20:53:29;11.33;;;7.80;;
15665;SDS011;20725;51.196;3.510;2022-12-07T20:56:02;13.33;;;7.27;;
15665;SDS011;20725;51.196;3.510;2022-12-07T20:58:38;11.03;;;7.63;;
15665;SDS011;20725;51.196;3.510;2022-12-07T21:01:08;14.77;;;8.37;;
15665;SDS011;20725;51.196;3.510;2022-12-07T21:03:39;12.00;;;7.67;;
15665;SDS011;20725;51.196;3.510;2022-12-07T21:06:10;15.43;;;8.63;;
15665;SDS011;20725;51.196;3.510;2022-12-07T21:08:48;13.13;;;8.53;;
15665;SDS011;20725;51.196;3.510;2022-12-07T21:11:44;14.10;;;8.63;;
15665;SDS011;20725;51.196;3.510;2022-12-07T21:14:20;11.77;;;8.50;;
15665;SDS011;20725;51.196;3.510;2022-12-07T21:17:10;12.50;;;8.43;;
15665;SDS011;20725;51.196;3.510;2022-12-07T21:19:51;15.10;;;8.53;;
15665;SDS011;20725;51.196;3.510;2022-12-07T21:22:22;14.13;;;9.60;;
15665;SDS011;20725;51.196;3.510;2022-12-07T21:25:04;13.77;;;9.20;;
15665;SDS011;20725;51.196;3.510;2022-12-07T21:27:35;15.13;;;9.57;;
15665;SDS011;20725;51.196;3.510;2022-12-07T21:30:06;11.10;;;9.27;;
15665;SDS011;20725;51.196;3.510;2022-12-07T21:32:39;14.73;;;9.40;;
15665;SDS011;20725;51.196;3.510;2022-12-07T21:35:16;13.53;;;9.00;;
15665;SDS011;20725;51.196;3.510;2022-12-07T21:37:57;19.07;;;9.30;;
15665;SDS011;20725;51.196;3.510;2022-12-07T21:40:30;13.07;;;9.33;;
15665;SDS011;20725;51.196;3.510;2022-12-07T21:43:10;14.20;;;9.67;;
15665;SDS011;20725;51.196;3.510;2022-12-07T21:45:54;15.73;;;9.27;;
15665;SDS011;20725;51.196;3.510;2022-12-07T21:48:31;18.10;;;9.70;;
15665;SDS011;20725;51.196;3.510;2022-12-07T21:51:04;13.13;;;9.70;;
15665;SDS011;20725;51.196;3.510;2022-12-07T21:53:39;15.20;;;9.33;;
15665;SDS011;20725;51.196;3.510;2022-12-07T21:56:20;19.87;;;10.77;;
15665;SDS011;20725;51.196;3.510;2022-12-07T21:59:05;13.83;;;9.60;;
15665;SDS011;20725;51.196;3.510;2022-12-07T22:01:47;15.57;;;10.30;;
15665;SDS011;20725;51.196;3.510;2022-12-07T22:04:23;13.77;;;11.40;;
15665;SDS011;20725;51.196;3.510;2022-12-07T22:06:54;17.77;;;11.80;;
15665;SDS011;20725;51.196;3.510;2022-12-07T22:09:26;15.90;;;12.03;;
15665;SDS011;20725;51.196;3.510;2022-12-07T22:12:01;19.33;;;12.90;;
15665;SDS011;20725;51.196;3.510;2022-12-07T22:14:36;16.17;;;12.27;;
15665;SDS011;20725;51.196;3.510;2022-12-07T22:17:24;16.87;;;11.97;;
15665;SDS011;20725;51.196;3.510;2022-12-07T22:19:56;18.13;;;13.17;;
15665;SDS011;20725;51.196;3.510;2022-12-07T22:22:47;15.37;;;12.97;;
15665;SDS011;20725;51.196;3.510;2022-12-07T22:25:30;18.03;;;13.10;;
15665;SDS011;20725;51.196;3.510;2022-12-07T22:28:14;19.83;;;12.90;;
15665;SDS011;20725;51.196;3.510;2022-12-07T22:30:55;19.40;;;11.87;;
15665;SDS011;20725;51.196;3.510;2022-12-07T22:33:55;19.07;;;14.70;;
15665;SDS011;20725;51.196;3.510;2022-12-07T22:36:36;21.80;;;12.90;;
15665;SDS011;20725;51.196;3.510;2022-12-07T22:39:09;18.33;;;12.63;;
15665;SDS011;20725;51.196;3.510;2022-12-07T22:41:51;20.00;;;11.97;;
15665;SDS011;20725;51.196;3.510;2022-12-07T22:44:19;16.40;;;12.53;;
15665;SDS011;20725;51.196;3.510;2022-12-07T22:47:01;19.53;;;13.60;;
15665;SDS011;20725;51.196;3.510;2022-12-07T22:49:31;21.30;;;12.70;;